Time;durP1;ratioP1;P1;durP2;ratioP2;P2;SDS_P1;SDS_P2;PMS_P1;PMS_P2;Temp;Humidity;BMP_temperature;BMP_pressure;BME280_temperature;BME280_humidity;BME280_pressure;Samples;Min_cycle;Max_cycle;Signal;HPM_P1;HPM_P2
2021/11/25 00:00:37;;;;;;;76.35;12.77;;;;;;;;;;5074716;28;20228;-65
2021/11/25 00:03:05;;;;;;;73.20;11.38;;;;;;;;;;5074562;28;20708;-64
2021/11/25 00:05:32;;;;;;;73.13;12.38;;;;;;;;;;5074172;28;20205;-65
2021/11/25 00:08:01;;;;;;;72.85;11.07;;;;;;;;;;5074473;28;20235;-66
2021/11/25 00:10:28;;;;;;;76.47;13.88;;;;;;;;;;5074765;28;20200;-66
2021/11/25 00:12:55;;;;;;;87.70;17.70;;;;;;;;;;5074527;28;20725;-65
2021/11/25 00:15:25;;;;;;;75.95;12.57;;;;;;;;;;5074377;28;20211;-65
2021/11/25 00:17:52;;;;;;;77.28;12.32;;;;;;;;;;5074370;28;20311;-65
2021/11/25 00:20:20;;;;;;;94.35;18.17;;;;;;;;;;5071841;28;20229;-65
2021/11/25 00:22:48;;;;;;;86.93;16.88;;;;;;;;;;5074396;28;20229;-65
2021/11/25 00:25:15;;;;;;;77.28;12.05;;;;;;;;;;5074296;28;20286;-65
2021/11/25 00:27:42;;;;;;;71.43;10.65;;;;;;;;;;5074135;28;20208;-65
2021/11/25 00:30:11;;;;;;;75.78;11.65;;;;;;;;;;5074119;28;20292;-64
2021/11/25 00:32:39;;;;;;;75.65;12.63;;;;;;;;;;5073927;28;20232;-65
2021/11/25 00:35:07;;;;;;;74.47;12.95;;;;;;;;;;5073931;28;20209;-65
2021/11/25 00:37:34;;;;;;;72.65;12.18;;;;;;;;;;5073908;28;20211;-65
2021/11/25 00:40:01;;;;;;;74.25;11.77;;;;;;;;;;5074061;28;20209;-65
2021/11/25 00:42:28;;;;;;;76.68;12.40;;;;;;;;;;5073666;28;20237;-65
2021/11/25 00:44:55;;;;;;;73.60;11.52;;;;;;;;;;5073775;28;20201;-65
2021/11/25 00:47:22;;;;;;;71.70;11.02;;;;;;;;;;5073723;28;20200;-65
2021/11/25 00:49:51;;;;;;;71.85;11.27;;;;;;;;;;5073759;28;20204;-65
2021/11/25 00:52:18;;;;;;;73.53;10.52;;;;;;;;;;5071525;28;20236;-65
2021/11/25 00:54:45;;;;;;;75.03;10.55;;;;;;;;;;5073772;28;20201;-65
2021/11/25 00:57:12;;;;;;;74.00;11.73;;;;;;;;;;5073949;28;20204;-64
2021/11/25 00:59:39;;;;;;;73.10;11.93;;;;;;;;;;5073453;28;20205;-65
2021/11/25 01:02:06;;;;;;;71.13;10.93;;;;;;;;;;5073399;28;20229;-64
2021/11/25 01:04:33;;;;;;;72.45;11.15;;;;;;;;;;5073601;28;20209;-65
2021/11/25 01:07:02;;;;;;;71.82;11.63;;;;;;;;;;5073217;28;20205;-64
2021/11/25 01:09:29;;;;;;;72.10;11.98;;;;;;;;;;5072810;28;20201;-65
2021/11/25 01:12:01;;;;;;;70.63;10.55;;;;;;;;;;5073370;28;20591;-65
2021/11/25 01:14:28;;;;;;;72.90;11.45;;;;;;;;;;5073211;28;20630;-65
2021/11/25 01:16:55;;;;;;;78.88;12.85;;;;;;;;;;5073146;28;20205;-65
2021/11/25 01:19:22;;;;;;;73.85;12.65;;;;;;;;;;5073393;28;20373;-65
2021/11/25 01:21:49;;;;;;;77.47;10.90;;;;;;;;;;5072994;28;20713;-65
2021/11/25 01:24:18;;;;;;;73.38;11.63;;;;;;;;;;5072968;28;20228;-65
2021/11/25 01:26:45;;;;;;;78.97;11.90;;;;;;;;;;5069697;28;20205;-65
2021/11/25 01:29:12;;;;;;;70.82;10.18;;;;;;;;;;5073184;28;20205;-65
2021/11/25 01:31:39;;;;;;;71.82;11.60;;;;;;;;;;5072757;28;20223;-64
2021/11/25 01:34:07;;;;;;;69.07;9.80;;;;;;;;;;5072939;28;20201;-65
2021/11/25 01:36:34;;;;;;;81.05;11.70;;;;;;;;;;5072552;28;20209;-66
2021/11/25 01:39:01;;;;;;;76.45;12.50;;;;;;;;;;5072885;28;20212;-65
2021/11/25 01:41:30;;;;;;;72.38;12.80;;;;;;;;;;5072394;28;20770;-65
2021/11/25 01:43:57;;;;;;;73.75;12.15;;;;;;;;;;5073072;28;20216;-65
2021/11/25 01:46:24;;;;;;;72.47;11.68;;;;;;;;;;5072875;28;20201;-65
2021/11/25 01:48:51;;;;;;;77.78;12.30;;;;;;;;;;5072581;28;20677;-64
2021/11/25 01:51:19;;;;;;;77.05;12.38;;;;;;;;;;5072500;28;20754;-65
2021/11/25 01:53:47;;;;;;;77.28;12.40;;;;;;;;;;5072342;28;20215;-65
2021/11/25 01:56:15;;;;;;;76.25;14.45;;;;;;;;;;5072181;28;20208;-65
2021/11/25 01:58:44;;;;;;;76.25;13.15;;;;;;;;;;5069747;28;20201;-65
2021/11/25 02:01:13;;;;;;;75.07;13.20;;;;;;;;;;5072340;28;20225;-65
2021/11/25 02:03:40;;;;;;;75.03;12.77;;;;;;;;;;5072240;28;20212;-64
2021/11/25 02:06:08;;;;;;;73.63;11.90;;;;;;;;;;5071963;28;20398;-65
2021/11/25 02:08:36;;;;;;;74.93;12.88;;;;;;;;;;5072365;28;20681;-65
2021/11/25 02:11:03;;;;;;;76.63;11.98;;;;;;;;;;5072179;28;20200;-65
2021/11/25 02:13:30;;;;;;;70.78;11.50;;;;;;;;;;5072354;28;20201;-64
2021/11/25 02:15:59;;;;;;;74.25;11.60;;;;;;;;;;5071772;28;20208;-65
2021/11/25 02:18:27;;;;;;;74.45;12.70;;;;;;;;;;5072028;28;20205;-64
2021/11/25 02:20:56;;;;;;;79.20;12.43;;;;;;;;;;5071106;28;20310;-66
2021/11/25 02:23:23;;;;;;;78.93;13.15;;;;;;;;;;5071769;28;20211;-65
2021/11/25 02:25:51;;;;;;;75.03;11.70;;;;;;;;;;5071694;28;20216;-64
2021/11/25 02:28:19;;;;;;;76.35;11.43;;;;;;;;;;5071908;28;20201;-65
2021/11/25 02:30:46;;;;;;;73.15;12.07;;;;;;;;;;5070472;28;20673;-63
2021/11/25 02:33:13;;;;;;;75.95;11.98;;;;;;;;;;5071916;28;20220;-65
2021/11/25 02:35:41;;;;;;;75.75;13.45;;;;;;;;;;5071780;28;20225;-65
2021/11/25 02:38:10;;;;;;;74.03;12.45;;;;;;;;;;5071868;28;20205;-66
2021/11/25 02:40:38;;;;;;;73.75;12.80;;;;;;;;;;5071810;28;20209;-64
2021/11/25 02:43:07;;;;;;;76.32;11.88;;;;;;;;;;5071611;28;20236;-64
2021/11/25 02:45:44;;;;;;;71.03;11.27;;;;;;;;;;5071328;28;20745;-65
2021/11/25 02:48:12;;;;;;;76.43;12.80;;;;;;;;;;5069001;28;20209;-65
2021/11/25 02:50:40;;;;;;;73.30;11.88;;;;;;;;;;5071727;28;20314;-65
2021/11/25 02:53:08;;;;;;;75.53;12.75;;;;;;;;;;5071652;28;20482;-66
2021/11/25 02:55:37;;;;;;;76.80;12.68;;;;;;;;;;5071137;28;20208;-64
2021/11/25 02:58:04;;;;;;;76.32;12.90;;;;;;;;;;5071802;28;20566;-65
2021/11/25 03:00:34;;;;;;;77.88;12.48;;;;;;;;;;5071622;28;20211;-64
2021/11/25 03:03:03;;;;;;;73.38;12.18;;;;;;;;;;5071149;28;20225;-72
2021/11/25 03:05:30;;;;;;;76.15;14.25;;;;;;;;;;5069104;28;20205;-66
2021/11/25 03:07:57;;;;;;;72.32;12.18;;;;;;;;;;5071365;28;20200;-65
2021/11/25 03:10:25;;;;;;;76.53;12.00;;;;;;;;;;5071646;28;20579;-65
2021/11/25 03:12:53;;;;;;;76.65;12.40;;;;;;;;;;5071399;28;20225;-64
2021/11/25 03:15:20;;;;;;;73.57;11.88;;;;;;;;;;5071208;28;20692;-65
2021/11/25 03:17:48;;;;;;;75.00;13.18;;;;;;;;;;5071191;28;20209;-65
2021/11/25 03:20:15;;;;;;;73.00;12.48;;;;;;;;;;5071323;28;20205;-65
2021/11/25 03:22:42;;;;;;;77.47;12.18;;;;;;;;;;5071459;28;20233;-66
2021/11/25 03:25:09;;;;;;;77.32;13.57;;;;;;;;;;5071222;28;20673;-65
2021/11/25 03:27:36;;;;;;;78.80;12.90;;;;;;;;;;5071221;28;20209;-65
2021/11/25 03:30:06;;;;;;;73.13;12.63;;;;;;;;;;5071487;28;20223;-66
2021/11/25 03:32:33;;;;;;;73.05;11.63;;;;;;;;;;5071599;28;20228;-66
2021/11/25 03:35:00;;;;;;;78.03;13.50;;;;;;;;;;5074868;28;20200;-65
2021/11/25 03:37:27;;;;;;;77.63;14.10;;;;;;;;;;5072420;28;20699;-64
2021/11/25 03:39:54;;;;;;;81.07;12.90;;;;;;;;;;5075314;28;20201;-65
2021/11/25 03:42:21;;;;;;;74.43;12.30;;;;;;;;;;5075025;28;20228;-65
2021/11/25 03:44:49;;;;;;;74.65;11.25;;;;;;;;;;5075131;28;20208;-65
2021/11/25 03:47:18;;;;;;;73.68;11.10;;;;;;;;;;5074607;28;20212;-64
2021/11/25 03:49:45;;;;;;;72.60;12.38;;;;;;;;;;5074851;28;20205;-65
2021/11/25 03:52:12;;;;;;;75.70;12.32;;;;;;;;;;5075044;28;20221;-65
2021/11/25 03:54:39;;;;;;;76.20;11.98;;;;;;;;;;5074839;28;20696;-65
2021/11/25 03:57:07;;;;;;;76.53;12.75;;;;;;;;;;5074612;28;20207;-66
2021/11/25 03:59:34;;;;;;;76.50;12.90;;;;;;;;;;5074868;28;20207;-65
2021/11/25 04:02:01;;;;;;;78.20;12.32;;;;;;;;;;5074355;28;20232;-65
2021/11/25 04:04:29;;;;;;;74.10;11.90;;;;;;;;;;5074887;28;20306;-66
2021/11/25 04:06:57;;;;;;;76.05;13.38;;;;;;;;;;5073997;28;20204;-65
2021/11/25 04:09:24;;;;;;;75.80;12.63;;;;;;;;;;5072684;28;20212;-65
2021/11/25 04:11:51;;;;;;;76.88;12.38;;;;;;;;;;5074393;28;20221;-65
2021/11/25 04:14:18;;;;;;;80.05;14.05;;;;;;;;;;5074549;28;20209;-65
2021/11/25 04:16:45;;;;;;;73.32;11.70;;;;;;;;;;5073976;28;20205;-65
2021/11/25 04:19:12;;;;;;;81.18;13.65;;;;;;;;;;5074573;28;20201;-65
2021/11/25 04:21:41;;;;;;;74.70;11.95;;;;;;;;;;5074321;28;20627;-66
2021/11/25 04:24:08;;;;;;;77.60;14.25;;;;;;;;;;5074442;28;20209;-65
2021/11/25 04:26:35;;;;;;;76.55;13.43;;;;;;;;;;5073970;28;20205;-65
2021/11/25 04:29:02;;;;;;;74.95;13.18;;;;;;;;;;5074089;28;20321;-65
2021/11/25 04:37:00;;;;;;;75.22;12.80;;;;;;;;;;5073819;28;20204;-65
2021/11/25 04:39:27;;;;;;;74.93;11.90;;;;;;;;;;5074184;28;20623;-65
2021/11/25 04:41:55;;;;;;;75.30;12.23;;;;;;;;;;5071647;28;20232;-65
2021/11/25 04:44:22;;;;;;;76.88;12.18;;;;;;;;;;5073228;28;20201;-65
2021/11/25 04:46:49;;;;;;;77.55;13.68;;;;;;;;;;5073428;28;20215;-65
2021/11/25 04:49:16;;;;;;;75.75;13.40;;;;;;;;;;5073940;28;20228;-65
2021/11/25 04:51:44;;;;;;;77.10;14.13;;;;;;;;;;5073732;28;20217;-66
2021/11/25 04:54:12;;;;;;;78.68;14.23;;;;;;;;;;5073564;28;20305;-65
2021/11/25 04:56:39;;;;;;;81.32;14.32;;;;;;;;;;5073467;28;20208;-65
2021/11/25 04:59:06;;;;;;;76.20;12.75;;;;;;;;;;5073813;28;20233;-65
2021/11/25 05:01:34;;;;;;;78.45;14.07;;;;;;;;;;5073565;28;20225;-65
2021/11/25 05:04:01;;;;;;;76.55;13.23;;;;;;;;;;5073540;28;20254;-64
2021/11/25 05:06:28;;;;;;;77.57;13.00;;;;;;;;;;5073170;28;20204;-65
2021/11/25 05:08:56;;;;;;;76.43;13.73;;;;;;;;;;5073348;28;20211;-65
2021/11/25 05:11:24;;;;;;;75.47;12.48;;;;;;;;;;5073321;28;20221;-64
2021/11/25 05:13:51;;;;;;;78.72;13.45;;;;;;;;;;5070406;28;20677;-65
2021/11/25 05:16:19;;;;;;;79.95;13.48;;;;;;;;;;5073097;28;20240;-65
2021/11/25 05:18:46;;;;;;;79.63;13.82;;;;;;;;;;5073300;28;20205;-65
2021/11/25 05:21:13;;;;;;;76.60;12.15;;;;;;;;;;5072977;28;20609;-65
2021/11/25 05:23:40;;;;;;;76.95;12.52;;;;;;;;;;5073675;28;20308;-66
2021/11/25 05:26:07;;;;;;;76.40;13.98;;;;;;;;;;5072763;28;20208;-65
2021/11/25 05:28:36;;;;;;;76.72;12.23;;;;;;;;;;5073195;28;20201;-64
2021/11/25 05:31:03;;;;;;;76.10;12.50;;;;;;;;;;5073380;28;20680;-66
2021/11/25 05:33:30;;;;;;;73.53;11.52;;;;;;;;;;5073017;28;20204;-65
2021/11/25 05:35:58;;;;;;;85.95;15.70;;;;;;;;;;5072554;28;20208;-65
2021/11/25 05:38:25;;;;;;;76.45;14.23;;;;;;;;;;5072885;28;20209;-65
2021/11/25 05:40:52;;;;;;;76.43;12.60;;;;;;;;;;5073022;28;20205;-64
2021/11/25 05:43:19;;;;;;;75.68;13.27;;;;;;;;;;5072759;28;20252;-65
2021/11/25 05:45:48;;;;;;;78.05;12.65;;;;;;;;;;5070877;28;20208;-63
2021/11/25 05:48:15;;;;;;;78.13;14.40;;;;;;;;;;5071799;28;20197;-65
2021/11/25 05:50:42;;;;;;;80.20;13.80;;;;;;;;;;5072588;28;20258;-65
2021/11/25 05:53:09;;;;;;;80.82;14.35;;;;;;;;;;5072640;28;20225;-65
2021/11/25 05:55:36;;;;;;;78.90;13.75;;;;;;;;;;5072230;28;20205;-65
2021/11/25 05:58:04;;;;;;;78.80;14.40;;;;;;;;;;5072543;28;20205;-65
2021/11/25 06:00:31;;;;;;;78.18;13.20;;;;;;;;;;5072478;28;20209;-65
2021/11/25 06:02:59;;;;;;;81.72;14.80;;;;;;;;;;5072095;28;20225;-65
2021/11/25 06:05:27;;;;;;;78.28;13.85;;;;;;;;;;5072172;28;20610;-64
2021/11/25 06:07:59;;;;;;;72.57;12.52;;;;;;;;;;5072314;28;20474;-65
2021/11/25 06:10:26;;;;;;;82.22;14.40;;;;;;;;;;5072396;28;20204;-65
2021/11/25 06:12:54;;;;;;;76.75;13.73;;;;;;;;;;5071997;28;20735;-65
2021/11/25 06:15:21;;;;;;;82.72;15.20;;;;;;;;;;5071884;28;20563;-64
2021/11/25 06:17:48;;;;;;;80.63;13.82;;;;;;;;;;5072270;28;20205;-65
2021/11/25 06:20:17;;;;;;;80.68;13.68;;;;;;;;;;5069604;28;20200;-65
2021/11/25 06:22:45;;;;;;;76.53;13.07;;;;;;;;;;5071864;28;20707;-66
2021/11/25 06:25:13;;;;;;;81.20;14.73;;;;;;;;;;5072039;28;20205;-65
2021/11/25 06:27:40;;;;;;;78.93;14.73;;;;;;;;;;5071686;28;20601;-65
2021/11/25 06:30:09;;;;;;;80.72;15.07;;;;;;;;;;5071735;28;20201;-65
2021/11/25 06:32:37;;;;;;;84.75;15.63;;;;;;;;;;5071984;28;20228;-65
2021/11/25 06:35:07;;;;;;;80.72;15.05;;;;;;;;;;5071746;28;20205;-65
2021/11/25 06:37:35;;;;;;;83.82;17.40;;;;;;;;;;5071661;28;20295;-65
2021/11/25 06:40:02;;;;;;;82.93;13.80;;;;;;;;;;5071762;28;20207;-65
2021/11/25 06:42:30;;;;;;;79.03;15.20;;;;;;;;;;5071259;28;20233;-64
2021/11/25 06:44:57;;;;;;;79.55;14.55;;;;;;;;;;5071941;28;20577;-66
2021/11/25 06:47:24;;;;;;;80.85;15.05;;;;;;;;;;5071538;28;20205;-65
2021/11/25 06:49:51;;;;;;;74.85;14.32;;;;;;;;;;5071654;28;20211;-66
2021/11/25 06:52:18;;;;;;;74.65;13.57;;;;;;;;;;5069162;28;20224;-65
2021/11/25 06:54:46;;;;;;;78.85;14.00;;;;;;;;;;5071581;28;20215;-65
2021/11/25 06:57:13;;;;;;;84.65;16.00;;;;;;;;;;5068173;28;20212;-66
2021/11/25 06:59:41;;;;;;;80.10;14.35;;;;;;;;;;5071655;28;20677;-65
2021/11/25 07:02:09;;;;;;;77.82;12.68;;;;;;;;;;5069375;28;20236;-66
2021/11/25 07:04:36;;;;;;;79.60;13.75;;;;;;;;;;5071621;28;20201;-66
2021/11/25 07:09:39;;;;;;;79.70;14.32;;;;;;;;;;5168381;22;20820;-65
2021/11/25 07:12:08;;;;;;;81.50;16.08;;;;;;;;;;5011548;28;20233;-65
2021/11/25 07:14:35;;;;;;;78.28;14.50;;;;;;;;;;5011686;28;20219;-66
2021/11/25 07:17:02;;;;;;;79.38;14.93;;;;;;;;;;5011756;28;20214;-64
2021/11/25 07:19:29;;;;;;;85.07;15.55;;;;;;;;;;5011305;28;20605;-65
2021/11/25 07:21:56;;;;;;;82.75;15.50;;;;;;;;;;5011834;28;20203;-65
2021/11/25 07:24:23;;;;;;;80.15;14.35;;;;;;;;;;5011836;28;20676;-65
2021/11/25 07:26:50;;;;;;;83.50;16.33;;;;;;;;;;5011730;28;20210;-65
2021/11/25 07:29:19;;;;;;;82.53;15.80;;;;;;;;;;5011335;28;20237;-66
2021/11/25 07:31:46;;;;;;;84.30;17.33;;;;;;;;;;5011239;28;20207;-64
2021/11/25 07:34:14;;;;;;;79.97;15.43;;;;;;;;;;5011578;28;20211;-65
2021/11/25 07:36:41;;;;;;;79.50;15.60;;;;;;;;;;5009730;28;20210;-65
2021/11/25 07:39:08;;;;;;;81.75;15.60;;;;;;;;;;5011198;28;20338;-64
2021/11/25 07:41:38;;;;;;;83.63;15.00;;;;;;;;;;5011454;28;20206;-65
2021/11/25 07:44:05;;;;;;;85.35;15.98;;;;;;;;;;5011478;28;20226;-64
2021/11/25 07:46:34;;;;;;;80.05;14.48;;;;;;;;;;5011193;28;20682;-65
2021/11/25 07:49:02;;;;;;;87.78;15.45;;;;;;;;;;5011442;28;20227;-64
2021/11/25 07:51:30;;;;;;;79.93;13.88;;;;;;;;;;5011813;28;20215;-65
2021/11/25 07:53:57;;;;;;;79.88;13.73;;;;;;;;;;5011575;28;20215;-65
2021/11/25 07:56:24;;;;;;;81.78;15.10;;;;;;;;;;5011427;28;20288;-65
2021/11/25 07:58:51;;;;;;;83.70;15.35;;;;;;;;;;5010899;28;20744;-65
2021/11/25 08:01:18;;;;;;;79.18;15.52;;;;;;;;;;5011518;28;20213;-65
2021/11/25 08:03:47;;;;;;;83.53;14.85;;;;;;;;;;5011516;28;20234;-65
2021/11/25 08:06:14;;;;;;;78.03;14.43;;;;;;;;;;5011198;28;20218;-65
2021/11/25 08:08:42;;;;;;;82.47;14.70;;;;;;;;;;5008783;28;20237;-64
2021/11/25 08:11:09;;;;;;;81.18;14.85;;;;;;;;;;5011204;28;20212;-64
2021/11/25 08:13:36;;;;;;;83.97;15.82;;;;;;;;;;5011105;28;20204;-65
2021/11/25 08:16:03;;;;;;;82.75;13.65;;;;;;;;;;5011392;28;20236;-64
2021/11/25 08:18:31;;;;;;;77.78;14.48;;;;;;;;;;5010938;28;20227;-65
2021/11/25 08:20:59;;;;;;;81.55;14.57;;;;;;;;;;5013760;28;20674;-67
2021/11/25 08:23:27;;;;;;;85.55;14.85;;;;;;;;;;5014650;28;20226;-65
2021/11/25 08:25:54;;;;;;;84.75;15.35;;;;;;;;;;5014512;28;20215;-65
2021/11/25 08:28:22;;;;;;;85.68;15.20;;;;;;;;;;5014029;28;20230;-65
2021/11/25 08:30:49;;;;;;;82.72;13.50;;;;;;;;;;5014603;28;20234;-65
2021/11/25 08:33:16;;;;;;;80.75;14.20;;;;;;;;;;5014729;28;20207;-66
2021/11/25 08:35:43;;;;;;;83.75;15.10;;;;;;;;;;5014413;28;20483;-65
2021/11/25 08:38:12;;;;;;;80.70;14.43;;;;;;;;;;5014098;28;20227;-65
2021/11/25 08:40:39;;;;;;;78.63;13.75;;;;;;;;;;5011570;28;20215;-65
2021/11/25 08:43:06;;;;;;;85.38;14.18;;;;;;;;;;5014436;28;20218;-65
2021/11/25 08:45:34;;;;;;;81.72;14.13;;;;;;;;;;5014101;28;20266;-65
2021/11/25 08:48:02;;;;;;;82.63;14.93;;;;;;;;;;5014301;28;20289;-65
2021/11/25 08:50:30;;;;;;;82.70;14.10;;;;;;;;;;5014128;28;20214;-65
2021/11/25 08:52:57;;;;;;;84.75;15.30;;;;;;;;;;5014088;28;20666;-65
2021/11/25 08:55:27;;;;;;;82.85;14.55;;;;;;;;;;5013652;28;20215;-65
2021/11/25 08:57:54;;;;;;;76.63;13.05;;;;;;;;;;5013688;28;20227;-65
2021/11/25 09:00:23;;;;;;;80.53;13.23;;;;;;;;;;5013736;28;20645;-65
2021/11/25 09:02:51;;;;;;;81.28;14.65;;;;;;;;;;5013689;28;20223;-65
2021/11/25 09:05:18;;;;;;;78.38;13.60;;;;;;;;;;5013459;28;20579;-65
2021/11/25 09:07:45;;;;;;;77.75;14.45;;;;;;;;;;5011611;28;20211;-65
2021/11/25 09:10:12;;;;;;;84.32;14.20;;;;;;;;;;5013777;28;20207;-65
2021/11/25 09:12:41;;;;;;;84.95;15.60;;;;;;;;;;5013902;28;20214;-65
2021/11/25 09:15:09;;;;;;;83.97;15.32;;;;;;;;;;5013843;28;20207;-65
2021/11/25 09:17:36;;;;;;;76.55;13.43;;;;;;;;;;5013249;28;20215;-65
2021/11/25 09:20:03;;;;;;;81.70;14.57;;;;;;;;;;5013559;28;20218;-66
2021/11/25 09:22:31;;;;;;;78.70;14.65;;;;;;;;;;5013355;28;20207;-66
2021/11/25 09:24:58;;;;;;;81.50;14.00;;;;;;;;;;5013538;28;20211;-65
2021/11/25 09:27:25;;;;;;;83.15;15.57;;;;;;;;;;5013141;28;20215;-64
2021/11/25 09:29:53;;;;;;;79.18;13.35;;;;;;;;;;5012723;28;20203;-65
2021/11/25 09:32:20;;;;;;;77.90;14.80;;;;;;;;;;5012799;28;20207;-65
2021/11/25 09:34:47;;;;;;;77.53;13.65;;;;;;;;;;5011336;28;20214;-65
2021/11/25 09:37:15;;;;;;;82.10;15.85;;;;;;;;;;5012858;28;20309;-65
2021/11/25 09:39:42;;;;;;;77.68;15.88;;;;;;;;;;5013110;28;20741;-65
2021/11/25 09:42:09;;;;;;;81.75;15.63;;;;;;;;;;5013079;28;20207;-65
2021/11/25 09:44:36;;;;;;;79.55;14.82;;;;;;;;;;5013327;28;20580;-65
2021/11/25 09:47:05;;;;;;;80.80;14.85;;;;;;;;;;5012965;28;20211;-66
2021/11/25 09:49:32;;;;;;;82.18;15.30;;;;;;;;;;5012529;28;20313;-65
2021/11/25 09:52:00;;;;;;;81.00;14.25;;;;;;;;;;5013153;28;20357;-66
2021/11/25 09:54:27;;;;;;;79.03;13.95;;;;;;;;;;5012986;28;20207;-65
2021/11/25 09:56:54;;;;;;;85.88;16.15;;;;;;;;;;5012791;28;20214;-66
2021/11/25 09:59:21;;;;;;;80.07;16.25;;;;;;;;;;5012570;28;20231;-65
2021/11/25 10:01:49;;;;;;;81.75;14.38;;;;;;;;;;5012672;28;20272;-65
2021/11/25 10:04:17;;;;;;;82.70;15.77;;;;;;;;;;5012607;28;20238;-65
2021/11/25 10:06:52;;;;;;;79.07;14.20;;;;;;;;;;5002180;28;20218;-65
2021/11/25 10:09:30;;;;;;;78.15;13.43;;;;;;;;;;4992936;28;20227;-66
2021/11/25 10:11:57;;;;;;;77.43;13.13;;;;;;;;;;4992831;28;20219;-65
2021/11/25 10:14:35;;;;;;;82.05;14.55;;;;;;;;;;4992902;28;20211;-64
2021/11/25 10:17:02;;;;;;;80.78;15.43;;;;;;;;;;4992690;28;20244;-64
2021/11/25 10:19:31;;;;;;;79.28;15.30;;;;;;;;;;4992482;28;20761;-65
2021/11/25 10:21:59;;;;;;;81.88;15.90;;;;;;;;;;4992910;28;20208;-65
2021/11/25 10:24:32;;;;;;;86.32;16.02;;;;;;;;;;4992823;28;20235;-66
2021/11/25 10:27:12;;;;;;;82.10;16.23;;;;;;;;;;4992431;28;20207;-65
2021/11/25 10:29:40;;;;;;;80.35;14.13;;;;;;;;;;4992807;28;20235;-65
2021/11/25 10:32:07;;;;;;;82.90;14.65;;;;;;;;;;4992741;28;20299;-64
2021/11/25 10:34:41;;;;;;;81.65;15.27;;;;;;;;;;4992632;28;20212;-66
2021/11/25 10:37:18;;;;;;;83.30;16.08;;;;;;;;;;4992298;28;20211;-65
2021/11/25 10:40:09;;;;;;;78.60;14.43;;;;;;;;;;5006802;28;20230;-65
2021/11/25 10:42:40;;;;;;;79.25;14.27;;;;;;;;;;5011564;28;20284;-65
2021/11/25 10:45:12;;;;;;;79.20;15.00;;;;;;;;;;5012025;28;20609;-64
2021/11/25 10:47:39;;;;;;;76.57;14.60;;;;;;;;;;5011700;28;20221;-65
2021/11/25 10:50:10;;;;;;;76.25;14.10;;;;;;;;;;5011897;28;20206;-66
2021/11/25 10:52:39;;;;;;;81.60;15.18;;;;;;;;;;5012244;28;20229;-65
2021/11/25 10:55:07;;;;;;;79.45;14.32;;;;;;;;;;5011916;28;20203;-65
2021/11/25 10:57:39;;;;;;;80.40;13.77;;;;;;;;;;5011484;28;20229;-66
2021/11/25 11:00:08;;;;;;;79.88;15.05;;;;;;;;;;5010168;28;20769;-66
2021/11/25 11:02:35;;;;;;;77.25;15.25;;;;;;;;;;5011749;28;20603;-65
2021/11/25 11:05:03;;;;;;;76.38;13.05;;;;;;;;;;5011782;28;20227;-64
2021/11/25 11:07:32;;;;;;;76.88;13.25;;;;;;;;;;5011482;28;20206;-65
2021/11/25 11:10:00;;;;;;;76.88;14.15;;;;;;;;;;5011860;28;20218;-65
2021/11/25 11:12:33;;;;;;;81.20;15.23;;;;;;;;;;5011621;28;20211;-65
2021/11/25 11:15:12;;;;;;;81.07;13.93;;;;;;;;;;5011640;28;20203;-65
2021/11/25 11:17:59;;;;;;;76.15;12.80;;;;;;;;;;5011484;28;20214;-65
2021/11/25 11:20:26;;;;;;;79.03;14.13;;;;;;;;;;5011933;28;20210;-66
2021/11/25 11:22:57;;;;;;;80.30;14.20;;;;;;;;;;5011830;28;20207;-65
2021/11/25 11:25:24;;;;;;;79.07;13.70;;;;;;;;;;5012016;28;20231;-65
2021/11/25 11:27:53;;;;;;;76.25;13.15;;;;;;;;;;5011504;28;20233;-65
2021/11/25 11:30:20;;;;;;;74.07;12.02;;;;;;;;;;5011881;28;20229;-66
2021/11/25 11:32:47;;;;;;;77.75;13.40;;;;;;;;;;5009820;28;20211;-65
2021/11/25 11:35:15;;;;;;;79.90;14.38;;;;;;;;;;5011609;28;20210;-64
2021/11/25 11:37:43;;;;;;;79.07;14.30;;;;;;;;;;5011070;28;20210;-65
2021/11/25 11:40:12;;;;;;;82.13;14.63;;;;;;;;;;5011501;28;20213;-65
2021/11/25 11:42:39;;;;;;;81.00;14.95;;;;;;;;;;5011658;28;20209;-65
2021/11/25 11:45:07;;;;;;;81.38;15.25;;;;;;;;;;5011542;28;20598;-65
2021/11/25 11:47:35;;;;;;;81.25;14.13;;;;;;;;;;5011151;28;20207;-65
2021/11/25 11:50:03;;;;;;;75.88;13.30;;;;;;;;;;5011562;28;20203;-65
2021/11/25 11:52:30;;;;;;;77.40;13.10;;;;;;;;;;5011782;28;20212;-66
2021/11/25 11:54:58;;;;;;;83.53;16.38;;;;;;;;;;5014274;28;20207;-66
2021/11/25 11:57:35;;;;;;;82.95;16.83;;;;;;;;;;5014840;28;20700;-66
2021/11/25 12:00:06;;;;;;;80.45;15.70;;;;;;;;;;5015205;28;20207;-66
2021/11/25 12:02:40;;;;;;;83.80;16.65;;;;;;;;;;5015151;28;20217;-65
2021/11/25 12:05:07;;;;;;;82.00;16.35;;;;;;;;;;4999687;28;20231;-66
2021/11/25 12:07:34;;;;;;;84.07;16.52;;;;;;;;;;4995276;28;20590;-66
2021/11/25 12:10:01;;;;;;;76.40;14.00;;;;;;;;;;4995230;28;20203;-65
2021/11/25 12:12:28;;;;;;;84.82;15.07;;;;;;;;;;4995344;28;20218;-66
2021/11/25 12:14:58;;;;;;;83.85;15.55;;;;;;;;;;4995097;28;20266;-65
2021/11/25 12:17:27;;;;;;;81.72;15.98;;;;;;;;;;4994767;28;20215;-65
2021/11/25 12:19:54;;;;;;;82.00;15.98;;;;;;;;;;4995360;28;20216;-66
2021/11/25 12:22:22;;;;;;;78.10;14.32;;;;;;;;;;4995379;28;20215;-66
2021/11/25 12:24:51;;;;;;;77.72;13.63;;;;;;;;;;4994683;28;20282;-66
2021/11/25 12:27:29;;;;;;;83.28;14.93;;;;;;;;;;4995086;28;20207;-65
2021/11/25 12:30:05;;;;;;;79.75;13.98;;;;;;;;;;4994774;28;20215;-65
2021/11/25 12:32:38;;;;;;;82.30;16.30;;;;;;;;;;4995179;28;20235;-66
2021/11/25 12:35:26;;;;;;;80.65;15.07;;;;;;;;;;4994596;28;20226;-66
2021/11/25 12:37:55;;;;;;;82.28;15.70;;;;;;;;;;5008208;28;20262;-66
2021/11/25 12:40:56;;;;;;;85.00;15.25;;;;;;;;;;5014182;28;20266;-65
2021/11/25 12:43:24;;;;;;;81.03;16.10;;;;;;;;;;4953575;28;20213;-66
2021/11/25 12:45:54;;;;;;;83.70;15.82;;;;;;;;;;4953452;28;20234;-66
2021/11/25 12:48:22;;;;;;;79.25;14.50;;;;;;;;;;4953147;29;20229;-65
2021/11/25 12:50:53;;;;;;;80.85;14.50;;;;;;;;;;4953383;29;20213;-66
2021/11/25 12:53:23;;;;;;;79.55;14.38;;;;;;;;;;4953472;28;20308;-65
2021/11/25 12:55:54;;;;;;;81.63;16.25;;;;;;;;;;4953356;29;20316;-66
2021/11/25 12:58:21;;;;;;;80.82;16.42;;;;;;;;;;4952990;29;20225;-65
2021/11/25 13:00:48;;;;;;;84.97;17.45;;;;;;;;;;4953329;29;20221;-65
2021/11/25 13:03:19;;;;;;;87.25;19.15;;;;;;;;;;4953068;29;20216;-65
2021/11/25 13:05:47;;;;;;;82.18;15.38;;;;;;;;;;4952401;28;20594;-66
2021/11/25 13:08:22;;;;;;;79.72;15.45;;;;;;;;;;4951544;29;20629;-65
2021/11/25 13:10:49;;;;;;;83.65;14.68;;;;;;;;;;4933862;29;20308;-65
2021/11/25 13:13:18;;;;;;;82.55;15.77;;;;;;;;;;4938447;28;20210;-66
2021/11/25 13:15:55;;;;;;;85.90;15.77;;;;;;;;;;4993755;28;20212;-66
2021/11/25 13:18:23;;;;;;;75.50;13.82;;;;;;;;;;4993680;28;20722;-65
2021/11/25 13:20:52;;;;;;;81.57;13.98;;;;;;;;;;4994183;28;20226;-66
2021/11/25 13:23:20;;;;;;;80.60;15.70;;;;;;;;;;4994089;28;20235;-66
2021/11/25 13:25:48;;;;;;;76.72;13.70;;;;;;;;;;4993687;28;20606;-65
2021/11/25 13:28:25;;;;;;;80.32;14.43;;;;;;;;;;4993418;28;20765;-65
2021/11/25 13:30:52;;;;;;;79.28;15.23;;;;;;;;;;4993979;28;20245;-65
2021/11/25 13:33:19;;;;;;;82.80;15.50;;;;;;;;;;4993847;28;20218;-66
2021/11/25 13:35:47;;;;;;;81.63;14.63;;;;;;;;;;4993617;28;20593;-65
2021/11/25 13:38:14;;;;;;;79.32;16.08;;;;;;;;;;4993242;28;20228;-66
2021/11/25 13:40:42;;;;;;;78.97;16.27;;;;;;;;;;4992665;28;20203;-65
2021/11/25 13:43:09;;;;;;;79.90;16.13;;;;;;;;;;5013017;28;20291;-65
2021/11/25 13:45:36;;;;;;;84.00;16.55;;;;;;;;;;5013105;28;20234;-65
2021/11/25 13:48:03;;;;;;;82.40;15.10;;;;;;;;;;5012688;28;20250;-66
2021/11/25 13:50:31;;;;;;;84.70;16.33;;;;;;;;;;5013309;28;20209;-66
2021/11/25 13:53:02;;;;;;;81.47;16.10;;;;;;;;;;5012776;28;20226;-65
2021/11/25 13:55:30;;;;;;;84.18;16.85;;;;;;;;;;5012773;28;20239;-65
2021/11/25 13:57:59;;;;;;;78.72;16.23;;;;;;;;;;5012593;28;20230;-66
2021/11/25 14:00:27;;;;;;;79.88;15.60;;;;;;;;;;5013055;28;20314;-65
2021/11/25 14:02:54;;;;;;;82.80;16.10;;;;;;;;;;5012708;28;20697;-65
2021/11/25 14:05:21;;;;;;;80.55;15.90;;;;;;;;;;5012727;28;20227;-65
2021/11/25 14:07:49;;;;;;;79.30;14.18;;;;;;;;;;5012070;28;20223;-65
2021/11/25 14:10:18;;;;;;;82.40;16.98;;;;;;;;;;5012537;28;20710;-65
2021/11/25 14:12:47;;;;;;;80.40;14.82;;;;;;;;;;5012589;28;20246;-65
2021/11/25 14:15:23;;;;;;;81.20;15.35;;;;;;;;;;4993410;28;20211;-65
2021/11/25 14:17:51;;;;;;;81.57;16.13;;;;;;;;;;4992634;28;20227;-65
2021/11/25 14:20:22;;;;;;;82.38;17.25;;;;;;;;;;4992590;28;20671;-65
2021/11/25 14:22:50;;;;;;;85.43;15.75;;;;;;;;;;4993022;28;20207;-65
2021/11/25 14:25:24;;;;;;;90.93;15.68;;;;;;;;;;4992681;28;20386;-65
2021/11/25 14:30:36;;;;;;;82.18;15.98;;;;;;;;;;4992580;28;20287;-66
2021/11/25 14:33:05;;;;;;;85.18;16.95;;;;;;;;;;4992532;28;20705;-64